Time;durP1;ratioP1;P1;durP2;ratioP2;P2;SDS_P1;SDS_P2;PMS_P1;PMS_P2;Temp;Humidity;BMP_temperature;BMP_pressure;BME280_temperature;BME280_humidity;BME280_pressure;Samples;Min_cycle;Max_cycle;Signal;HPM_P1;HPM_P2
2022/12/26 00:00:32;;;;;;;12.70;8.80;;;;;;;;;;108417;1267;38952;-36
2022/12/26 00:03:23;;;;;;;11.80;9.60;;;;;;;;;;108421;1262;42670;-36
2022/12/26 00:05:53;;;;;;;11.30;8.70;;;;;;;;;;108405;1254;42737;-36
2022/12/26 00:08:28;;;;;;;;;;;;;;;;;;108464;1267;41619;-34
2022/12/26 00:11:01;;;;;;;10.70;7.90;;;;;;;;;;108435;1270;38884;-34
2022/12/26 00:13:31;;;;;;;11.30;8.30;;;;;;;;;;108415;1267;39968;-34
2022/12/26 00:16:20;;;;;;;12.00;8.60;;;;;;;;;;108401;1257;42655;-34
2022/12/26 00:18:54;;;;;;;11.20;8.40;;;;;;;;;;108419;1267;41683;-34
2022/12/26 00:21:27;;;;;;;11.90;8.60;;;;;;;;;;108447;1260;38693;-34
2022/12/26 00:23:59;;;;;;;11.00;8.50;;;;;;;;;;108429;1267;40005;-34
2022/12/26 00:26:31;;;;;;;11.50;9.00;;;;;;;;;;108369;1267;42448;-34
2022/12/26 00:29:02;;;;;;;14.50;8.40;;;;;;;;;;108431;1267;41589;-34
2022/12/26 00:31:39;;;;;;;11.10;8.60;;;;;;;;;;108436;1266;38799;-34
2022/12/26 00:34:10;;;;;;;10.80;8.50;;;;;;;;;;108442;1257;41088;-34
2022/12/26 00:36:40;;;;;;;12.00;8.50;;;;;;;;;;108375;1259;42600;-34
2022/12/26 00:39:12;;;;;;;10.90;8.10;;;;;;;;;;108455;1264;41523;-34
2022/12/26 00:41:44;;;;;;;12.80;8.90;;;;;;;;;;108412;1260;38550;-34
2022/12/26 00:44:14;;;;;;;11.30;8.20;;;;;;;;;;108452;1259;39959;-34
2022/12/26 00:46:46;;;;;;;11.40;8.00;;;;;;;;;;108370;1257;42649;-34
2022/12/26 00:49:19;;;;;;;10.70;7.70;;;;;;;;;;108440;1258;41292;-34
2022/12/26 00:51:49;;;;;;;10.90;7.90;;;;;;;;;;108415;1257;38552;-34
2022/12/26 00:54:21;;;;;;;10.40;8.10;;;;;;;;;;108419;1257;40190;-34
2022/12/26 00:56:51;;;;;;;10.60;8.40;;;;;;;;;;108406;1260;42748;-34
2022/12/26 00:59:24;;;;;;;9.70;7.50;;;;;;;;;;108405;1269;41534;-34
2022/12/26 01:01:57;;;;;;;9.80;7.40;;;;;;;;;;108439;1270;38654;-34
2022/12/26 01:04:31;;;;;;;11.60;8.30;;;;;;;;;;108468;1259;39723;-34
2022/12/26 01:07:01;;;;;;;10.10;7.80;;;;;;;;;;108372;1257;42495;-34
2022/12/26 01:09:31;;;;;;;10.50;7.70;;;;;;;;;;108422;1259;41247;-34
2022/12/26 01:12:01;;;;;;;10.60;7.80;;;;;;;;;;108407;1259;37621;-34
2022/12/26 01:14:36;;;;;;;9.30;6.80;;;;;;;;;;108447;1270;39530;-34
2022/12/26 01:17:06;;;;;;;10.70;7.60;;;;;;;;;;108413;1258;43912;-34
2022/12/26 01:19:38;;;;;;;9.80;7.60;;;;;;;;;;108392;1261;41318;-34
2022/12/26 01:22:08;;;;;;;11.00;7.40;;;;;;;;;;108414;1270;38454;-34
2022/12/26 01:24:45;;;;;;;10.30;7.70;;;;;;;;;;108438;1260;40033;-34
2022/12/26 01:27:20;;;;;;;11.10;8.00;;;;;;;;;;108382;1254;42664;-34
2022/12/26 01:29:50;;;;;;;9.60;7.50;;;;;;;;;;108426;1267;41591;-34
2022/12/26 01:32:21;;;;;;;9.90;7.80;;;;;;;;;;108440;1257;38733;-34
2022/12/26 01:34:54;;;;;;;9.80;7.70;;;;;;;;;;108425;1257;40137;-34
2022/12/26 01:37:26;;;;;;;9.90;7.30;;;;;;;;;;108390;1257;42646;-34
2022/12/26 01:39:56;;;;;;;10.80;7.20;;;;;;;;;;108316;1266;175761;-34
2022/12/26 01:42:34;;;;;;;8.70;7.30;;;;;;;;;;108432;1260;39036;-34
2022/12/26 01:45:15;;;;;;;12.00;7.80;;;;;;;;;;108456;1262;39868;-34
2022/12/26 01:47:51;;;;;;;9.20;6.90;;;;;;;;;;108378;1258;44096;-34
2022/12/26 01:50:38;;;;;;;9.50;7.20;;;;;;;;;;108402;1265;41733;-34
2022/12/26 01:53:14;;;;;;;9.70;7.00;;;;;;;;;;108391;1258;38698;-34
2022/12/26 01:55:49;;;;;;;9.30;7.10;;;;;;;;;;108434;1267;39666;-34
2022/12/26 01:58:27;;;;;;;10.50;7.30;;;;;;;;;;108375;1258;42690;-34
2022/12/26 02:00:57;;;;;;;9.20;7.50;;;;;;;;;;108399;1266;41604;-34
2022/12/26 02:06:19;;;;;;;9.10;7.20;;;;;;;;;;108427;1270;41074;-33
2022/12/26 02:08:49;;;;;;;9.40;7.50;;;;;;;;;;108355;1269;42691;-33
2022/12/26 02:11:31;;;;;;;10.00;7.30;;;;;;;;;;108430;1257;41514;-33
2022/12/26 02:14:05;;;;;;;9.10;6.50;;;;;;;;;;108432;1258;38738;-33
2022/12/26 02:16:43;;;;;;;9.50;7.10;;;;;;;;;;108434;1265;39895;-33
2022/12/26 02:19:35;;;;;;;11.20;7.50;;;;;;;;;;108271;1259;175874;-33
2022/12/26 02:22:47;;;;;;;8.80;7.20;;;;;;;;;;108417;1270;41869;-33
2022/12/26 02:26:12;;;;;;;9.70;7.50;;;;;;;;;;108451;1261;38865;-33
2022/12/26 02:29:30;;;;;;;9.80;7.60;;;;;;;;;;107796;1264;39667;-33
2022/12/26 02:32:09;;;;;;;8.60;6.60;;;;;;;;;;107714;1273;42932;-33
2022/12/26 02:34:53;;;;;;;9.70;7.30;;;;;;;;;;108315;1269;41566;-33
2022/12/26 02:37:44;;;;;;;8.40;6.40;;;;;;;;;;108406;1267;38727;-33
2022/12/26 02:40:33;;;;;;;9.70;6.90;;;;;;;;;;108409;1259;39719;-33
2022/12/26 02:43:14;;;;;;;9.00;6.80;;;;;;;;;;108417;1260;42549;-33
2022/12/26 02:49:06;;;;;;;9.10;6.90;;;;;;;;;;107716;1254;894706;-33
2022/12/26 03:15:21;;;;;;;8.50;6.70;;;;;;;;;;108407;1257;39932;-33
2022/12/26 03:17:57;;;;;;;9.00;6.80;;;;;;;;;;108445;1265;42628;-33
2022/12/26 03:20:34;;;;;;;8.70;6.50;;;;;;;;;;108357;1259;41610;-33
2022/12/26 03:23:10;;;;;;;8.00;6.20;;;;;;;;;;108477;1263;38658;-33
2022/12/26 03:28:38;;;;;;;8.80;6.60;;;;;;;;;;108430;1258;42790;-33
2022/12/26 03:31:13;;;;;;;8.80;6.50;;;;;;;;;;108380;1255;41478;-33
2022/12/26 03:36:44;;;;;;;9.80;6.60;;;;;;;;;;108412;1267;40049;-33
2022/12/26 04:20:37;;;;;;;8.90;6.40;;;;;;;;;;108516;1266;38646;-35
2022/12/26 04:44:06;;;;;;;8.00;5.40;;;;;;;;;;108403;1259;44324;-36
2022/12/26 04:46:40;;;;;;;7.50;5.30;;;;;;;;;;108429;1266;39830;-36
2022/12/26 04:52:11;;;;;;;7.40;5.00;;;;;;;;;;108383;1256;41455;-36
2022/12/26 04:54:47;;;;;;;7.40;5.60;;;;;;;;;;108427;1266;38633;-36
2022/12/26 04:57:20;;;;;;;7.30;5.30;;;;;;;;;;108396;1269;39885;-36
2022/12/26 04:59:53;;;;;;;8.40;5.60;;;;;;;;;;108455;1266;42746;-36
2022/12/26 05:11:22;;;;;;;7.60;5.20;;;;;;;;;;108487;1257;42721;-36
2022/12/26 05:14:01;;;;;;;6.70;4.80;;;;;;;;;;108468;1257;41511;-36
2022/12/26 05:30:49;;;;;;;6.30;4.60;;;;;;;;;;108431;1260;40027;-33
2022/12/26 05:36:14;;;;;;;6.40;4.70;;;;;;;;;;108423;1259;41590;-33
2022/12/26 05:38:47;;;;;;;7.40;4.80;;;;;;;;;;108451;1265;39193;-33
2022/12/26 05:41:20;;;;;;;7.30;4.70;;;;;;;;;;108468;1253;39890;-33
2022/12/26 05:43:50;;;;;;;6.40;4.50;;;;;;;;;;108370;1260;42808;-33
2022/12/26 05:46:20;;;;;;;7.30;4.90;;;;;;;;;;108420;1267;41850;-33
2022/12/26 05:48:54;;;;;;;6.80;4.60;;;;;;;;;;108429;1260;39036;-33
2022/12/26 05:51:27;;;;;;;6.70;4.60;;;;;;;;;;108425;1258;39941;-33
2022/12/26 05:54:04;;;;;;;7.00;4.40;;;;;;;;;;108371;1261;42455;-33
2022/12/26 05:56:35;;;;;;;5.40;3.90;;;;;;;;;;108460;1256;41910;-33
2022/12/26 05:59:08;;;;;;;6.30;4.20;;;;;;;;;;108447;1267;38631;-33
2022/12/26 06:01:38;;;;;;;5.40;3.70;;;;;;;;;;108436;1257;39814;-33
2022/12/26 06:04:09;;;;;;;6.10;3.90;;;;;;;;;;108443;1260;42780;-33
2022/12/26 06:06:41;;;;;;;6.10;4.10;;;;;;;;;;108449;1266;41612;-34
2022/12/26 06:09:16;;;;;;;6.40;4.20;;;;;;;;;;108452;1270;38805;-35
2022/12/26 06:11:46;;;;;;;7.20;4.60;;;;;;;;;;108427;1266;40060;-35
2022/12/26 06:14:18;;;;;;;5.90;4.30;;;;;;;;;;108429;1258;42879;-35
2022/12/26 06:16:51;;;;;;;6.50;4.20;;;;;;;;;;108462;1266;41210;-35
2022/12/26 06:19:23;;;;;;;5.70;4.00;;;;;;;;;;108456;1257;38690;-35
2022/12/26 06:21:54;;;;;;;6.50;4.00;;;;;;;;;;108445;1259;39678;-33
2022/12/26 06:24:26;;;;;;;6.50;4.20;;;;;;;;;;108424;1259;43990;-33
2022/12/26 06:26:59;;;;;;;6.00;4.10;;;;;;;;;;108443;1267;41604;-33
2022/12/26 06:29:31;;;;;;;5.30;3.80;;;;;;;;;;108429;1270;38384;-33
2022/12/26 06:32:02;;;;;;;6.20;4.00;;;;;;;;;;108422;1260;40369;-34
2022/12/26 06:34:33;;;;;;;6.50;4.00;;;;;;;;;;108399;1259;42994;-34
2022/12/26 06:37:07;;;;;;;;;;;;;;;;;;108471;1267;41748;-34
2022/12/26 06:39:36;;;;;;;5.60;3.50;;;;;;;;;;108427;1267;38780;-35
2022/12/26 06:42:08;;;;;;;5.70;3.60;;;;;;;;;;108434;1267;39940;-35
2022/12/26 06:44:43;;;;;;;6.00;3.80;;;;;;;;;;108379;1254;42758;-35
2022/12/26 06:47:13;;;;;;;5.50;3.70;;;;;;;;;;108474;1266;41738;-35
2022/12/26 06:49:44;;;;;;;5.50;3.80;;;;;;;;;;108430;1267;38624;-35
2022/12/26 06:52:16;;;;;;;5.90;3.70;;;;;;;;;;108444;1269;40238;-35
2022/12/26 06:54:49;;;;;;;5.90;3.70;;;;;;;;;;108376;1254;42733;-35
2022/12/26 06:57:21;;;;;;;5.90;3.50;;;;;;;;;;108469;1258;42506;-35
2022/12/26 06:59:56;;;;;;;5.10;3.40;;;;;;;;;;108414;1267;38634;-35
2022/12/26 07:02:26;;;;;;;5.20;3.50;;;;;;;;;;108444;1254;41139;-33
2022/12/26 07:04:59;;;;;;;5.90;3.90;;;;;;;;;;108405;1255;42533;-33
2022/12/26 07:07:29;;;;;;;5.70;3.80;;;;;;;;;;108438;1254;43023;-33
2022/12/26 07:09:59;;;;;;;6.40;3.40;;;;;;;;;;108414;1261;39838;-33
2022/12/26 07:12:34;;;;;;;6.60;3.80;;;;;;;;;;108444;1269;39904;-34
2022/12/26 07:15:09;;;;;;;5.40;3.60;;;;;;;;;;108397;1260;42888;-35
2022/12/26 07:17:42;;;;;;;5.10;3.30;;;;;;;;;;108458;1265;41528;-33
2022/12/26 07:20:12;;;;;;;;;;;;;;;;;;108447;1260;38516;-33
2022/12/26 07:22:47;;;;;;;6.70;3.90;;;;;;;;;;108445;1265;40013;-32
2022/12/26 07:25:19;;;;;;;6.10;4.20;;;;;;;;;;108391;1255;42638;-32
2022/12/26 07:27:53;;;;;;;5.90;4.10;;;;;;;;;;108405;1260;41639;-32
2022/12/26 07:30:24;;;;;;;;;;;;;;;;;;108454;1259;38939;-33
2022/12/26 07:32:54;;;;;;;5.80;3.60;;;;;;;;;;108424;1269;40138;-33
2022/12/26 07:35:24;;;;;;;6.00;3.50;;;;;;;;;;108370;1260;43632;-33
2022/12/26 07:37:54;;;;;;;6.30;3.80;;;;;;;;;;108425;1266;42855;-33
2022/12/26 07:40:28;;;;;;;5.90;3.80;;;;;;;;;;108370;1268;39014;-33
2022/12/26 07:42:58;;;;;;;5.60;3.30;;;;;;;;;;108438;1257;40239;-33
2022/12/26 07:45:29;;;;;;;5.50;3.50;;;;;;;;;;108385;1267;42846;-33
2022/12/26 07:48:04;;;;;;;5.50;3.60;;;;;;;;;;108416;1266;47809;-33
2022/12/26 07:50:35;;;;;;;5.40;3.70;;;;;;;;;;108428;1266;38812;-33
2022/12/26 07:53:05;;;;;;;6.10;3.70;;;;;;;;;;108413;1259;40030;-33
2022/12/26 07:55:35;;;;;;;5.90;3.70;;;;;;;;;;108413;1270;42409;-33
2022/12/26 07:58:08;;;;;;;6.40;3.90;;;;;;;;;;108420;1268;41467;-33
2022/12/26 08:00:40;;;;;;;5.60;3.10;;;;;;;;;;108343;1257;175667;-33
2022/12/26 08:03:11;;;;;;;6.80;3.70;;;;;;;;;;108443;1265;40076;-33
2022/12/26 08:05:46;;;;;;;5.20;3.30;;;;;;;;;;108317;1258;175701;-33
2022/12/26 08:08:19;;;;;;;5.30;3.30;;;;;;;;;;108542;1259;47296;-35
2022/12/26 08:11:00;;;;;;;5.50;3.50;;;;;;;;;;108424;1266;38685;-35
2022/12/26 08:13:33;;;;;;;5.80;3.30;;;;;;;;;;107768;1270;894312;-35
2022/12/26 08:16:08;;;;;;;5.30;3.30;;;;;;;;;;108416;1270;42391;-35
2022/12/26 08:18:41;;;;;;;5.50;3.60;;;;;;;;;;108596;1258;47257;-35
2022/12/26 08:21:12;;;;;;;5.20;3.30;;;;;;;;;;108446;1269;38827;-35
2022/12/26 08:23:47;;;;;;;5.40;3.40;;;;;;;;;;108432;1259;39899;-35
2022/12/26 08:26:21;;;;;;;5.70;3.70;;;;;;;;;;108458;1269;42569;-35
2022/12/26 08:28:57;;;;;;;5.50;3.40;;;;;;;;;;108434;1258;48514;-35
2022/12/26 08:31:31;;;;;;;5.50;3.50;;;;;;;;;;108443;1258;38844;-35
2022/12/26 08:34:02;;;;;;;7.70;3.60;;;;;;;;;;108476;1266;40098;-35
2022/12/26 08:36:32;;;;;;;6.20;3.60;;;;;;;;;;108439;1260;42631;-35
2022/12/26 08:39:06;;;;;;;5.20;3.30;;;;;;;;;;108445;1259;47626;-35
2022/12/26 08:41:38;;;;;;;6.50;3.80;;;;;;;;;;108462;1257;38740;-35
2022/12/26 08:44:11;;;;;;;5.00;3.20;;;;;;;;;;108477;1266;40013;-35
2022/12/26 08:47:01;;;;;;;5.60;3.50;;;;;;;;;;108471;1260;42884;-35
2022/12/26 08:49:32;;;;;;;6.20;3.60;;;;;;;;;;108502;1266;47874;-35
2022/12/26 08:52:02;;;;;;;5.10;3.70;;;;;;;;;;108510;1257;38785;-35
2022/12/26 08:54:33;;;;;;;5.40;3.40;;;;;;;;;;108504;1260;40501;-35
2022/12/26 08:57:03;;;;;;;5.30;3.50;;;;;;;;;;108536;1257;42536;-35
2022/12/26 08:59:34;;;;;;;5.30;3.40;;;;;;;;;;108416;1259;47484;-35
2022/12/26 09:02:04;;;;;;;5.70;3.40;;;;;;;;;;108447;1267;38735;-35
2022/12/26 09:04:35;;;;;;;5.20;3.50;;;;;;;;;;108435;1266;41092;-36
2022/12/26 09:07:08;;;;;;;6.60;3.50;;;;;;;;;;108451;1260;43992;-37
2022/12/26 09:09:44;;;;;;;6.10;3.50;;;;;;;;;;108448;1260;41484;-37
2022/12/26 09:12:18;;;;;;;6.50;3.70;;;;;;;;;;108489;1260;38480;-37
2022/12/26 09:14:54;;;;;;;6.10;4.00;;;;;;;;;;108487;1266;40063;-35
2022/12/26 09:17:26;;;;;;;5.20;3.40;;;;;;;;;;108449;1264;42827;-35
2022/12/26 09:19:57;;;;;;;5.40;3.50;;;;;;;;;;108372;1259;41937;-35
2022/12/26 09:25:15;;;;;;;5.70;3.70;;;;;;;;;;108463;1266;39623;-35
2022/12/26 09:27:52;;;;;;;5.30;3.50;;;;;;;;;;108450;1257;42297;-35
2022/12/26 09:30:28;;;;;;;5.60;3.70;;;;;;;;;;108441;1258;48704;-35
2022/12/26 09:32:58;;;;;;;7.60;4.70;;;;;;;;;;108314;1265;175688;-35
2022/12/26 09:35:28;;;;;;;8.60;4.40;;;;;;;;;;108428;1259;39613;-35
2022/12/26 09:38:04;;;;;;;10.00;4.50;;;;;;;;;;108445;1266;42867;-35
2022/12/26 09:40:57;;;;;;;8.40;5.00;;;;;;;;;;108388;1260;47751;-35
2022/12/26 09:43:42;;;;;;;7.80;4.20;;;;;;;;;;108401;1259;38871;-35
2022/12/26 09:46:30;;;;;;;7.60;4.30;;;;;;;;;;108425;1259;39998;-35
2022/12/26 09:49:08;;;;;;;8.80;5.30;;;;;;;;;;108387;1257;44377;-35
2022/12/26 09:51:45;;;;;;;8.90;4.40;;;;;;;;;;108437;1270;43287;-35
2022/12/26 09:54:24;;;;;;;7.60;4.40;;;;;;;;;;108456;1264;39935;-35
2022/12/26 09:57:01;;;;;;;7.50;4.60;;;;;;;;;;108401;1269;40098;-35
2022/12/26 09:59:52;;;;;;;7.10;4.50;;;;;;;;;;108314;1259;175634;-35
2022/12/26 10:02:29;;;;;;;6.90;4.10;;;;;;;;;;108521;1259;41707;-35
2022/12/26 10:05:00;;;;;;;8.50;4.50;;;;;;;;;;108498;1260;39849;-35
2022/12/26 10:07:40;;;;;;;7.60;4.60;;;;;;;;;;108481;1263;40134;-35
2022/12/26 10:10:14;;;;;;;10.00;5.80;;;;;;;;;;108432;1260;42902;-35
2022/12/26 10:12:58;;;;;;;15.00;6.40;;;;;;;;;;108491;1260;41730;-35
2022/12/26 10:15:41;;;;;;;12.80;6.10;;;;;;;;;;108514;1260;38836;-35
2022/12/26 10:18:26;;;;;;;12.30;5.70;;;;;;;;;;108511;1259;40099;-35
2022/12/26 10:21:34;;;;;;;13.00;6.90;;;;;;;;;;108397;1259;42715;-35
2022/12/26 10:24:11;;;;;;;11.10;6.20;;;;;;;;;;108429;1270;43033;-35
2022/12/26 10:26:48;;;;;;;10.90;6.10;;;;;;;;;;108436;1266;38929;-36
2022/12/26 10:29:25;;;;;;;14.30;6.90;;;;;;;;;;108427;1259;40096;-35
2022/12/26 10:32:04;;;;;;;13.90;7.30;;;;;;;;;;108435;1259;49292;-35
2022/12/26 10:34:41;;;;;;;12.90;6.80;;;;;;;;;;107801;1269;892185;-34
2022/12/26 10:37:22;;;;;;;14.00;7.00;;;;;;;;;;108439;1267;38757;-34
2022/12/26 10:39:57;;;;;;;11.20;7.00;;;;;;;;;;108420;1257;41178;-35
2022/12/26 10:42:35;;;;;;;14.10;8.00;;;;;;;;;;108417;1269;42821;-35
2022/12/26 10:45:16;;;;;;;16.00;7.80;;;;;;;;;;108428;1266;41797;-35
2022/12/26 10:47:48;;;;;;;16.30;7.90;;;;;;;;;;108423;1263;39960;-35
2022/12/26 10:50:22;;;;;;;14.70;7.90;;;;;;;;;;108450;1267;39773;-35
2022/12/26 10:53:03;;;;;;;15.10;7.80;;;;;;;;;;108337;1268;42925;-35
2022/12/26 10:55:41;;;;;;;12.50;7.30;;;;;;;;;;108455;1269;41889;-35
2022/12/26 10:58:22;;;;;;;13.70;7.70;;;;;;;;;;108449;1259;38948;-37
2022/12/26 11:00:58;;;;;;;11.60;7.30;;;;;;;;;;108409;1258;41452;-38
2022/12/26 11:03:27;;;;;;;12.70;7.20;;;;;;;;;;108411;1254;42861;-36
2022/12/26 11:06:06;;;;;;;15.10;7.20;;;;;;;;;;108440;1269;41678;-35
2022/12/26 11:08:46;;;;;;;11.90;7.20;;;;;;;;;;108462;1258;39129;-34
2022/12/26 11:11:24;;;;;;;12.70;7.10;;;;;;;;;;108355;1258;40117;-34
2022/12/26 11:13:57;;;;;;;12.90;7.50;;;;;;;;;;108437;1260;44469;-35
2022/12/26 11:16:41;;;;;;;11.20;6.90;;;;;;;;;;108411;1268;42413;-36
2022/12/26 11:19:29;;;;;;;11.30;6.80;;;;;;;;;;108470;1265;38948;-36
2022/12/26 11:22:22;;;;;;;11.20;6.60;;;;;;;;;;108409;1259;40095;-37
2022/12/26 11:25:22;;;;;;;12.00;6.40;;;;;;;;;;108418;1259;42942;-37
2022/12/26 11:27:54;;;;;;;12.60;7.30;;;;;;;;;;108112;1265;42123;-36
2022/12/26 11:30:31;;;;;;;14.30;7.20;;;;;;;;;;108425;1270;38929;-36
2022/12/26 11:33:17;;;;;;;14.40;7.50;;;;;;;;;;108531;1259;45860;-36
2022/12/26 11:35:52;;;;;;;13.60;6.90;;;;;;;;;;108448;1266;43013;-36
2022/12/26 11:38:38;;;;;;;15.50;7.60;;;;;;;;;;108464;1265;41731;-36
2022/12/26 11:41:35;;;;;;;14.70;7.50;;;;;;;;;;108416;1254;40333;-36
2022/12/26 11:44:25;;;;;;;13.70;7.70;;;;;;;;;;108403;1267;40101;-36
2022/12/26 11:47:00;;;;;;;14.10;8.00;;;;;;;;;;108416;1267;42931;-34
2022/12/26 11:49:35;;;;;;;16.20;8.40;;;;;;;;;;108442;1270;43151;-34
2022/12/26 11:52:36;;;;;;;15.10;8.80;;;;;;;;;;108268;1260;176467;-34
2022/12/26 11:55:29;;;;;;;14.30;8.10;;;;;;;;;;108359;1269;175675;-34
2022/12/26 11:58:20;;;;;;;13.70;7.50;;;;;;;;;;108474;1264;44349;-34
2022/12/26 12:01:15;;;;;;;15.00;8.80;;;;;;;;;;108439;1259;41954;-34
2022/12/26 12:03:47;;;;;;;12.80;7.60;;;;;;;;;;108458;1258;45376;-34
2022/12/26 12:06:46;;;;;;;13.00;8.00;;;;;;;;;;108534;1266;41284;-34
2022/12/26 12:09:23;;;;;;;13.40;7.90;;;;;;;;;;108526;1255;44110;-34
2022/12/26 12:12:04;;;;;;;13.00;8.10;;;;;;;;;;108435;1254;41727;-35
2022/12/26 12:14:51;;;;;;;14.50;8.60;;;;;;;;;;108306;1270;39120;-36
2022/12/26 12:17:30;;;;;;;10.50;7.40;;;;;;;;;;108423;1270;40292;-36
2022/12/26 12:20:28;;;;;;;13.10;7.60;;;;;;;;;;108428;1266;42646;-36
2022/12/26 12:23:23;;;;;;;15.40;7.50;;;;;;;;;;108395;1257;41671;-36
2022/12/26 12:26:08;;;;;;;11.30;7.40;;;;;;;;;;108450;1256;38708;-36
2022/12/26 12:29:09;;;;;;;12.80;7.30;;;;;;;;;;108329;1259;175663;-36
2022/12/26 12:31:55;;;;;;;11.10;7.00;;;;;;;;;;108447;1259;42909;-36
2022/12/26 12:34:41;;;;;;;13.50;7.60;;;;;;;;;;108378;1259;47882;-36
2022/12/26 12:37:24;;;;;;;13.20;7.90;;;;;;;;;;108468;1260;38681;-36
2022/12/26 12:40:05;;;;;;;13.40;7.70;;;;;;;;;;108468;1266;39987;-36
2022/12/26 12:42:50;;;;;;;12.00;7.20;;;;;;;;;;108396;1269;42770;-36
2022/12/26 12:45:31;;;;;;;11.80;6.70;;;;;;;;;;108456;1254;41928;-36
2022/12/26 12:48:23;;;;;;;11.40;6.90;;;;;;;;;;108429;1258;38766;-36
2022/12/26 12:51:03;;;;;;;10.50;7.70;;;;;;;;;;108430;1269;40134;-34
2022/12/26 12:53:56;;;;;;;10.60;7.20;;;;;;;;;;108372;1260;43010;-34
2022/12/26 12:56:33;;;;;;;;;;;;;;;;;;108316;1269;176936;-34
2022/12/26 12:59:38;;;;;;;12.00;6.50;;;;;;;;;;108415;1260;38957;-35
2022/12/26 13:02:16;;;;;;;10.50;6.40;;;;;;;;;;108402;1260;40140;-36
2022/12/26 13:05:09;;;;;;;10.70;6.90;;;;;;;;;;108311;1269;175699;-36
2022/12/26 13:07:53;;;;;;;9.80;6.80;;;;;;;;;;108399;1268;41947;-36
2022/12/26 13:10:32;;;;;;;12.70;7.20;;;;;;;;;;108433;1257;38784;-36
2022/12/26 13:13:23;;;;;;;11.50;6.60;;;;;;;;;;108405;1257;41898;-36
2022/12/26 13:15:58;;;;;;;10.10;6.60;;;;;;;;;;108446;1264;42719;-36
2022/12/26 13:18:33;;;;;;;11.30;6.90;;;;;;;;;;108411;1263;41687;-34
2022/12/26 13:21:08;;;;;;;9.90;6.80;;;;;;;;;;108438;1270;38542;-35
2022/12/26 13:26:43;;;;;;;10.80;6.90;;;;;;;;;;108429;1265;42805;-36
2022/12/26 13:29:22;;;;;;;10.40;6.70;;;;;;;;;;108439;1269;41896;-34
2022/12/26 13:31:59;;;;;;;11.00;7.70;;;;;;;;;;108426;1259;38858;-34
2022/12/26 13:34:36;;;;;;;10.40;6.60;;;;;;;;;;108311;1268;41432;-35
2022/12/26 13:37:08;;;;;;;9.20;6.40;;;;;;;;;;108444;1259;44052;-36
2022/12/26 13:39:41;;;;;;;9.40;6.30;;;;;;;;;;108432;1268;41746;-36
2022/12/26 13:45:58;;;;;;;10.10;6.40;;;;;;;;;;108311;1259;175683;-36
2022/12/26 13:48:58;;;;;;;10.10;6.10;;;;;;;;;;108441;1258;42968;-36
2022/12/26 13:51:59;;;;;;;10.30;7.00;;;;;;;;;;108478;1265;42893;-36
2022/12/26 13:54:33;;;;;;;9.80;6.60;;;;;;;;;;108235;1269;40241;-36
2022/12/26 13:57:38;;;;;;;9.70;6.30;;;;;;;;;;108441;1260;39935;-36
2022/12/26 14:00:23;;;;;;;9.40;6.50;;;;;;;;;;108379;1268;42820;-36
2022/12/26 14:03:54;;;;;;;9.30;6.20;;;;;;;;;;108407;1260;41663;-36
2022/12/26 14:06:50;;;;;;;9.80;6.50;;;;;;;;;;108183;1269;46537;-34
2022/12/26 14:10:01;;;;;;;8.50;5.90;;;;;;;;;;108434;1269;39721;-34
2022/12/26 14:13:03;;;;;;;10.50;6.20;;;;;;;;;;107936;1271;42766;-34
2022/12/26 14:15:48;;;;;;;9.40;6.30;;;;;;;;;;108371;1259;41511;-34
2022/12/26 14:18:35;;;;;;;9.40;6.10;;;;;;;;;;108395;1267;38725;-34
2022/12/26 14:21:30;;;;;;;8.90;5.80;;;;;;;;;;108428;1266;40025;-34
2022/12/26 14:24:19;;;;;;;8.50;6.10;;;;;;;;;;108402;1269;42753;-34
2022/12/26 14:27:02;;;;;;;10.00;6.70;;;;;;;;;;108401;1269;47418;-34
2022/12/26 14:29:50;;;;;;;8.60;6.00;;;;;;;;;;108435;1267;38711;-34
2022/12/26 14:32:38;;;;;;;9.60;6.30;;;;;;;;;;108301;1259;175736;-34
2022/12/26 14:35:23;;;;;;;7.60;5.40;;;;;;;;;;108355;1257;42812;-34
2022/12/26 14:38:11;;;;;;;9.20;6.10;;;;;;;;;;108440;1266;41615;-34
2022/12/26 14:41:01;;;;;;;9.90;5.90;;;;;;;;;;108351;1266;39401;-34
2022/12/26 14:43:36;;;;;;;8.90;6.10;;;;;;;;;;108440;1260;41265;-34
2022/12/26 14:46:52;;;;;;;9.50;5.70;;;;;;;;;;108411;1259;42875;-34
2022/12/26 14:49:37;;;;;;;8.80;6.00;;;;;;;;;;108403;1259;41971;-35
2022/12/26 14:52:39;;;;;;;9.70;5.60;;;;;;;;;;108421;1266;38762;-36
2022/12/26 14:55:47;;;;;;;7.60;5.40;;;;;;;;;;108411;1260;40220;-36
2022/12/26 14:58:45;;;;;;;8.70;6.10;;;;;;;;;;108506;1266;51436;-36
2022/12/26 15:01:50;;;;;;;8.60;5.20;;;;;;;;;;108338;1260;41974;-35
2022/12/26 15:04:55;;;;;;;9.80;5.50;;;;;;;;;;108478;1257;40010;-35
2022/12/26 15:08:08;;;;;;;9.30;5.60;;;;;;;;;;108381;1258;39718;-35
2022/12/26 15:11:32;;;;;;;10.10;6.10;;;;;;;;;;108472;1265;42801;-35
2022/12/26 15:14:54;;;;;;;8.60;5.10;;;;;;;;;;107898;1269;41687;-35
2022/12/26 15:17:33;;;;;;;10.20;5.70;;;;;;;;;;108432;1260;38691;-36
2022/12/26 15:20:54;;;;;;;9.80;5.30;;;;;;;;;;108505;1269;40067;-35
2022/12/26 15:24:33;;;;;;;9.60;5.50;;;;;;;;;;108442;1268;42841;-35
2022/12/26 15:27:56;;;;;;;7.90;5.20;;;;;;;;;;107785;1265;41817;-35
2022/12/26 15:30:53;;;;;;;9.80;5.70;;;;;;;;;;107810;1267;38985;-35
2022/12/26 15:33:34;;;;;;;7.90;5.00;;;;;;;;;;108427;1269;40199;-34
2022/12/26 15:36:15;;;;;;;8.20;5.10;;;;;;;;;;108424;1259;42928;-34
2022/12/26 15:38:55;;;;;;;8.60;5.20;;;;;;;;;;108435;1260;41644;-34
2022/12/26 15:41:38;;;;;;;8.00;4.60;;;;;;;;;;108492;1271;38709;-34
2022/12/26 15:44:28;;;;;;;8.00;5.30;;;;;;;;;;108471;1270;40109;-34
2022/12/26 15:47:16;;;;;;;10.90;5.40;;;;;;;;;;108430;1257;42893;-34
2022/12/26 15:50:23;;;;;;;9.80;5.50;;;;;;;;;;108457;1258;41915;-34
2022/12/26 15:53:06;;;;;;;8.40;5.20;;;;;;;;;;108442;1260;38946;-34
2022/12/26 15:56:02;;;;;;;8.30;5.00;;;;;;;;;;108416;1266;40139;-34
2022/12/26 15:59:07;;;;;;;7.30;5.10;;;;;;;;;;108406;1257;42724;-34
2022/12/26 16:01:47;;;;;;;7.90;4.90;;;;;;;;;;108508;1270;41643;-34
2022/12/26 16:04:29;;;;;;;8.80;5.30;;;;;;;;;;108534;1260;40027;-34
2022/12/26 16:07:13;;;;;;;8.60;4.70;;;;;;;;;;108477;1270;40550;-34
2022/12/26 16:09:50;;;;;;;9.50;5.50;;;;;;;;;;108390;1260;48489;-34
2022/12/26 16:12:28;;;;;;;7.70;5.60;;;;;;;;;;108453;1266;41615;-34
2022/12/26 16:15:18;;;;;;;7.50;5.10;;;;;;;;;;108430;1266;38898;-34
2022/12/26 16:17:50;;;;;;;8.70;5.00;;;;;;;;;;108417;1260;40029;-34
2022/12/26 16:23:31;;;;;;;9.20;5.20;;;;;;;;;;108503;1267;41775;-34
2022/12/26 16:26:07;;;;;;;8.60;4.80;;;;;;;;;;108367;1267;175342;-34
2022/12/26 16:28:47;;;;;;;8.40;5.20;;;;;;;;;;108407;1258;41111;-34
2022/12/26 16:31:29;;;;;;;8.30;5.00;;;;;;;;;;108393;1269;42887;-34
2022/12/26 16:34:07;;;;;;;7.60;5.00;;;;;;;;;;108420;1269;42102;-34
2022/12/26 16:36:44;;;;;;;9.00;5.00;;;;;;;;;;108479;1266;38842;-34
2022/12/26 16:39:22;;;;;;;7.30;4.60;;;;;;;;;;108396;1257;40082;-34
2022/12/26 16:42:04;;;;;;;7.60;4.90;;;;;;;;;;108502;1266;42712;-34
2022/12/26 16:44:39;;;;;;;7.50;5.00;;;;;;;;;;108330;1258;175680;-34
2022/12/26 16:47:17;;;;;;;7.50;4.80;;;;;;;;;;108365;1260;175656;-34
2022/12/26 16:49:50;;;;;;;8.00;4.90;;;;;;;;;;108381;1270;39922;-35
2022/12/26 16:52:36;;;;;;;;;;;;;;;;;;108396;1269;42660;-35
2022/12/26 16:55:35;;;;;;;7.70;4.80;;;;;;;;;;108417;1260;41271;-35
2022/12/26 16:58:31;;;;;;;7.30;4.70;;;;;;;;;;108444;1264;38788;-35
2022/12/26 17:01:12;;;;;;;7.30;4.90;;;;;;;;;;108339;1259;45610;-35
2022/12/26 17:03:54;;;;;;;6.40;4.60;;;;;;;;;;108364;1260;42663;-35
2022/12/26 17:06:32;;;;;;;7.30;4.90;;;;;;;;;;108402;1261;41999;-35
2022/12/26 17:09:12;;;;;;;7.80;5.10;;;;;;;;;;108355;1254;38773;-35
2022/12/26 17:11:54;;;;;;;7.50;4.80;;;;;;;;;;108476;1269;41417;-33
2022/12/26 17:14:32;;;;;;;8.70;4.90;;;;;;;;;;108461;1263;42916;-33
2022/12/26 17:17:08;;;;;;;7.90;5.00;;;;;;;;;;108474;1257;41753;-35
2022/12/26 17:19:40;;;;;;;8.30;5.00;;;;;;;;;;108478;1257;38644;-36
2022/12/26 17:22:30;;;;;;;8.10;5.00;;;;;;;;;;108452;1260;40457;-36
2022/12/26 17:25:25;;;;;;;8.40;4.80;;;;;;;;;;108489;1268;44357;-36
2022/12/26 17:28:23;;;;;;;7.70;5.10;;;;;;;;;;108483;1267;41832;-35
2022/12/26 17:30:56;;;;;;;7.90;5.20;;;;;;;;;;108335;1258;38943;-35
2022/12/26 17:33:28;;;;;;;7.90;5.10;;;;;;;;;;108483;1264;40056;-34
2022/12/26 17:36:03;;;;;;;;;;;;;;;;;;108492;1264;42720;-34
2022/12/26 17:39:10;;;;;;;7.70;5.20;;;;;;;;;;108362;1260;175707;-34
2022/12/26 17:41:50;;;;;;;7.10;4.80;;;;;;;;;;108460;1257;38782;-34
2022/12/26 17:44:39;;;;;;;7.40;4.70;;;;;;;;;;108498;1267;40117;-34
2022/12/26 17:47:18;;;;;;;8.90;5.00;;;;;;;;;;108520;1266;42855;-35
2022/12/26 17:49:53;;;;;;;7.50;5.10;;;;;;;;;;108504;1263;41722;-37
2022/12/26 17:52:30;;;;;;;8.20;5.00;;;;;;;;;;108508;1267;45047;-34
2022/12/26 17:55:14;;;;;;;8.10;5.20;;;;;;;;;;108521;1258;40058;-34
2022/12/26 17:57:48;;;;;;;6.40;4.50;;;;;;;;;;108495;1268;42859;-34
2022/12/26 18:00:23;;;;;;;7.60;4.70;;;;;;;;;;108461;1254;41688;-34